createdAt,value
2023-01-07T00:00:04.731Z,6.60
2023-01-07T00:03:12.997Z,6.70
2023-01-07T00:06:24.583Z,6.50
2023-01-07T00:09:25.895Z,6.40
2023-01-07T00:12:26.909Z,6.30
2023-01-07T00:15:27.944Z,6.40
2023-01-07T00:18:28.948Z,6.40
2023-01-07T00:21:30.845Z,6.40
2023-01-07T00:24:31.638Z,6.40
2023-01-07T00:27:32.816Z,6.40
2023-01-07T00:30:34.161Z,6.40
2023-01-07T00:33:35.777Z,6.40
2023-01-07T00:36:39.966Z,6.40
2023-01-07T00:39:42.007Z,6.50
2023-01-07T00:42:54.973Z,6.50
2023-01-07T00:45:56.121Z,6.50
2023-01-07T00:48:57.319Z,6.50
2023-01-07T00:51:58.336Z,6.60
2023-01-07T00:54:59.685Z,6.60
2023-01-07T00:58:00.849Z,6.60
2023-01-07T01:01:03.730Z,6.50
2023-01-07T01:04:06.471Z,6.40
2023-01-07T01:07:07.595Z,6.30
2023-01-07T01:10:13.253Z,6.30
2023-01-07T01:13:18.438Z,6.20
2023-01-07T01:16:19.844Z,6.20
2023-01-07T01:19:20.975Z,6.20
2023-01-07T01:22:21.892Z,6.20
2023-01-07T01:25:22.764Z,6.20
2023-01-07T01:28:23.529Z,6.20
2023-01-07T01:31:24.432Z,6.20
2023-01-07T01:34:27.562Z,6.20
2023-01-07T01:37:28.303Z,6.20
2023-01-07T01:40:31.415Z,6.20
2023-01-07T01:43:36.564Z,6.20
2023-01-07T01:46:45.172Z,6.20
2023-01-07T01:49:56.575Z,6.20
2023-01-07T01:53:20.065Z,6.20
2023-01-07T01:56:30.739Z,6.10
2023-01-07T01:59:39.452Z,6.10
2023-01-07T02:02:57.937Z,6.10
2023-01-07T02:06:00.387Z,6.10
2023-01-07T02:09:01.804Z,6.00
2023-01-07T02:12:16.484Z,6.00
2023-01-07T02:15:54.204Z,6.00
2023-01-07T02:19:22.881Z,6.00
2023-01-07T02:22:49.191Z,6.00
2023-01-07T02:26:11.933Z,6.00
2023-01-07T02:30:11.270Z,6.00
2023-01-07T02:34:06.636Z,6.00
2023-01-07T02:37:21.301Z,6.00
2023-01-07T02:40:59.021Z,6.00
2023-01-07T02:44:15.083Z,5.90
2023-01-07T02:47:29.620Z,5.90
2023-01-07T02:50:33.305Z,5.90
2023-01-07T02:53:34.630Z,5.90
2023-01-07T02:57:22.197Z,5.90
2023-01-07T03:00:40.056Z,5.90
2023-01-07T03:04:24.462Z,5.90
2023-01-07T03:07:35.818Z,5.90
2023-01-07T03:10:58.707Z,5.90
2023-01-07T03:14:23.157Z,5.90
2023-01-07T03:17:34.695Z,5.90
2023-01-07T03:20:41.213Z,5.90
2023-01-07T03:23:51.223Z,5.90
2023-01-07T03:26:58.588Z,5.90
2023-01-07T03:30:02.882Z,5.80
2023-01-07T03:33:24.294Z,5.80
2023-01-07T03:36:35.954Z,5.80
2023-01-07T03:39:40.661Z,5.70
2023-01-07T03:42:42.724Z,5.70
2023-01-07T03:45:51.996Z,5.70
2023-01-07T03:48:53.290Z,5.70
2023-01-07T03:51:54.868Z,5.70
2023-01-07T03:54:56.442Z,5.70
2023-01-07T03:57:58.215Z,5.70
2023-01-07T04:01:00.287Z,5.70
2023-01-07T04:04:03.460Z,5.70
2023-01-07T04:07:05.104Z,5.70
2023-01-07T04:10:08.293Z,5.70
2023-01-07T04:13:09.900Z,5.70
2023-01-07T04:16:11.830Z,5.70
2023-01-07T04:19:13.150Z,5.70
2023-01-07T04:22:15.472Z,5.70
2023-01-07T04:25:17.107Z,5.70
2023-01-07T04:28:19.588Z,5.60
2023-01-07T04:31:21.232Z,5.50
2023-01-07T04:34:22.403Z,5.50
2023-01-07T04:37:23.746Z,5.50
2023-01-07T04:40:25.779Z,5.40
2023-01-07T04:43:26.917Z,5.30
2023-01-07T04:46:28.796Z,5.30
2023-01-07T04:49:29.968Z,5.20
2023-01-07T04:52:31.837Z,5.10
2023-01-07T04:55:33.492Z,5.00
2023-01-07T04:58:35.331Z,4.90
2023-01-07T05:01:36.905Z,4.90
2023-01-07T05:04:38.420Z,4.70
2023-01-07T05:07:40.106Z,4.60
2023-01-07T05:10:42.922Z,4.40
2023-01-07T05:13:43.766Z,4.30
2023-01-07T05:16:45.356Z,4.20
2023-01-07T05:19:47.245Z,4.10
2023-01-07T05:22:50.387Z,3.90
2023-01-07T05:25:52.701Z,3.80
2023-01-07T05:28:53.992Z,3.70
2023-01-07T05:31:55.279Z,3.50
2023-01-07T05:34:56.756Z,3.50
2023-01-07T05:37:57.837Z,3.40
2023-01-07T05:40:59.294Z,3.40
2023-01-07T05:44:02.248Z,3.20
2023-01-07T05:47:03.077Z,3.00
2023-01-07T05:50:04.177Z,3.10
2023-01-07T05:53:05.280Z,3.00
2023-01-07T05:56:06.319Z,2.80
2023-01-07T05:59:07.013Z,2.80
2023-01-07T06:02:07.864Z,2.70
2023-01-07T06:05:10.343Z,2.80
2023-01-07T06:08:11.656Z,2.80
2023-01-07T06:11:12.796Z,2.80
2023-01-07T06:14:13.853Z,2.70
2023-01-07T06:17:14.869Z,2.70
2023-01-07T06:20:16.066Z,2.50
2023-01-07T06:23:16.812Z,2.50
2023-01-07T06:26:17.525Z,2.60
2023-01-07T06:29:18.779Z,2.60
2023-01-07T06:32:19.471Z,2.60
2023-01-07T06:35:20.366Z,2.50
2023-01-07T06:38:21.680Z,2.50
2023-01-07T06:41:22.590Z,2.50
2023-01-07T06:44:23.860Z,2.50
2023-01-07T06:47:25.595Z,2.50
2023-01-07T06:50:27.022Z,2.50
2023-01-07T06:53:27.768Z,2.60
2023-01-07T06:56:28.641Z,2.60
2023-01-07T06:59:29.546Z,2.50
2023-01-07T07:02:31.469Z,2.40
2023-01-07T07:05:33.342Z,2.40
2023-01-07T07:08:34.248Z,2.50
2023-01-07T07:11:35.068Z,2.40
2023-01-07T07:14:35.929Z,2.40
2023-01-07T07:17:36.640Z,2.50
2023-01-07T07:20:37.581Z,2.50
2023-01-07T07:23:38.698Z,2.50
2023-01-07T07:26:40.184Z,2.50
2023-01-07T07:29:40.781Z,2.40
2023-01-07T07:32:42.755Z,2.40
2023-01-07T07:35:45.156Z,2.40
2023-01-07T07:38:45.913Z,2.40
2023-01-07T07:41:46.746Z,2.60
2023-01-07T07:44:51.516Z,2.60
2023-01-07T07:47:54.771Z,2.80
2023-01-07T07:50:55.731Z,2.80
2023-01-07T07:53:56.721Z,2.80
2023-01-07T07:56:58.490Z,3.00
2023-01-07T07:59:59.773Z,3.10
2023-01-07T08:03:01.245Z,3.10
2023-01-07T08:06:04.745Z,3.20
2023-01-07T08:09:05.547Z,3.20
2023-01-07T08:12:06.610Z,3.30
2023-01-07T08:15:09.352Z,3.40
2023-01-07T08:18:10.753Z,3.50
2023-01-07T08:21:11.824Z,3.50
2023-01-07T08:24:12.604Z,3.70
2023-01-07T08:27:13.303Z,3.70
2023-01-07T08:30:14.181Z,3.80
2023-01-07T08:33:14.959Z,4.00
2023-01-07T08:36:22.962Z,4.10
2023-01-07T08:39:24.321Z,4.20
2023-01-07T08:42:25.599Z,4.30
2023-01-07T08:45:27.054Z,4.40
2023-01-07T08:48:27.838Z,4.50
2023-01-07T08:51:29.022Z,4.60
2023-01-07T08:54:29.742Z,4.60
2023-01-07T08:57:30.737Z,4.70
2023-01-07T09:00:31.937Z,4.90
2023-01-07T09:03:33.611Z,5.00
2023-01-07T09:06:34.373Z,5.00
2023-01-07T09:09:35.664Z,5.10
2023-01-07T09:12:37.324Z,5.10
2023-01-07T09:15:38.358Z,5.20
2023-01-07T09:18:39.313Z,5.20
2023-01-07T09:21:40.198Z,5.30
2023-01-07T09:24:41.190Z,5.30
2023-01-07T09:27:42.606Z,5.30
2023-01-07T09:30:43.753Z,5.40
2023-01-07T09:33:44.737Z,5.50
2023-01-07T09:36:46.008Z,5.50
2023-01-07T09:39:47.179Z,5.50
2023-01-07T09:43:01.796Z,5.50
2023-01-07T09:46:08.909Z,5.60
2023-01-07T09:49:18.597Z,5.60
2023-01-07T09:52:43.948Z,5.60
2023-01-07T09:56:11.155Z,5.70
2023-01-07T09:59:13.374Z,5.80
2023-01-07T10:02:51.836Z,5.90
2023-01-07T10:06:35.124Z,6.00
2023-01-07T10:10:31.025Z,6.10
2023-01-07T10:14:03.108Z,6.10
2023-01-07T10:17:51.351Z,6.20
2023-01-07T10:21:10.821Z,6.20
2023-01-07T10:24:24.268Z,6.20
2023-01-07T10:27:35.707Z,6.30
2023-01-07T10:30:45.155Z,6.30
2023-01-07T10:33:49.277Z,6.30
2023-01-07T10:37:03.026Z,6.40
2023-01-07T10:40:31.515Z,6.60
2023-01-07T10:43:59.990Z,6.80
2023-01-07T10:48:03.673Z,6.90
2023-01-07T10:51:38.373Z,6.90
2023-01-07T10:55:16.492Z,6.90
2023-01-07T10:58:17.549Z,6.80
2023-01-07T11:01:35.035Z,6.80
2023-01-07T11:04:36.261Z,6.80
2023-01-07T11:07:47.873Z,6.70
2023-01-07T11:10:49.343Z,6.70
2023-01-07T11:14:00.236Z,6.70
2023-01-07T11:17:49.191Z,6.70
2023-01-07T11:20:59.283Z,6.70
2023-01-07T11:24:01.997Z,6.80
2023-01-07T11:27:16.683Z,6.80
2023-01-07T11:30:27.814Z,6.80
2023-01-07T11:34:01.615Z,7.00
2023-01-07T11:37:05.670Z,7.10
2023-01-07T11:40:15.765Z,7.20
2023-01-07T11:43:16.929Z,7.40
2023-01-07T11:46:23.378Z,7.50
2023-01-07T11:49:31.205Z,8.50
2023-01-07T11:52:32.910Z,8.80
2023-01-07T11:55:33.750Z,8.80
2023-01-07T11:58:39.745Z,8.70
2023-01-07T12:06:24.140Z,13.70
2023-01-07T12:10:32.106Z,11.40
2023-01-07T12:13:34.610Z,15.70
2023-01-07T12:16:36.542Z,12.80
2023-01-07T12:20:27.512Z,8.60
2023-01-07T12:24:12.901Z,8.10
2023-01-07T12:28:14.875Z,8.30
2023-01-07T12:31:49.988Z,11.10
2023-01-07T12:35:14.919Z,13.40
2023-01-07T12:39:39.806Z,11.70
2023-01-07T12:42:59.714Z,11.60
2023-01-07T12:46:10.971Z,9.80
2023-01-07T12:49:33.906Z,9.10
2023-01-07T12:53:11.345Z,9.50
2023-01-07T12:56:23.112Z,9.50
2023-01-07T12:59:48.000Z,9.50
2023-01-07T13:03:00.589Z,9.80
2023-01-07T13:06:24.775Z,10.70
2023-01-07T13:09:45.037Z,10.20
2023-01-07T13:12:50.077Z,9.30
2023-01-07T13:15:51.663Z,8.70
2023-01-07T13:21:16.208Z,9.00
2023-01-07T13:24:57.030Z,8.10
2023-01-07T13:28:07.547Z,9.50
2023-01-07T13:31:31.999Z,9.90
2023-01-07T13:35:35.046Z,8.80
2023-01-07T13:39:02.282Z,9.60
2023-01-07T13:42:33.887Z,9.50
2023-01-07T13:45:37.331Z,8.90
2023-01-07T13:48:40.936Z,9.10
2023-01-07T13:51:41.468Z,8.70
2023-01-07T13:54:48.227Z,8.90
2023-01-07T13:57:49.115Z,9.80
2023-01-07T14:01:05.271Z,9.10
2023-01-07T14:04:08.710Z,8.80
2023-01-07T14:07:10.126Z,8.80
2023-01-07T14:10:38.136Z,8.80
2023-01-07T14:14:18.026Z,8.70
2023-01-07T14:17:46.229Z,8.40
2023-01-07T14:21:20.075Z,8.60
2023-01-07T14:27:02.373Z,8.60
2023-01-07T14:30:26.469Z,8.50
2023-01-07T14:33:47.102Z,8.40
2023-01-07T14:37:13.725Z,8.10
2023-01-07T14:40:26.891Z,8.20
2023-01-07T14:43:45.908Z,8.10
2023-01-07T14:46:49.067Z,8.00
2023-01-07T14:49:55.780Z,8.20
2023-01-07T14:53:27.473Z,8.40
2023-01-07T14:56:47.765Z,9.10
2023-01-07T15:00:22.149Z,8.60
2023-01-07T15:03:46.833Z,8.00
2023-01-07T15:06:50.526Z,7.90
2023-01-07T15:10:16.236Z,7.90
2023-01-07T15:13:40.094Z,8.70
2023-01-07T15:16:43.119Z,8.20
2023-01-07T15:19:45.289Z,8.50
2023-01-07T15:23:20.949Z,10.70
2023-01-07T15:26:44.401Z,11.60
2023-01-07T15:30:03.463Z,11.40
2023-01-07T15:33:04.723Z,10.00
2023-01-07T15:36:12.938Z,7.70
2023-01-07T15:39:27.605Z,6.50
2023-01-07T15:42:29.969Z,5.80
2023-01-07T15:45:31.059Z,5.40
2023-01-07T15:48:32.232Z,5.20
2023-01-07T15:51:40.173Z,5.00
2023-01-07T15:54:41.408Z,4.90
2023-01-07T15:57:44.184Z,4.70
2023-01-07T16:00:50.483Z,4.60
2023-01-07T16:03:57.036Z,4.50
2023-01-07T16:07:00.741Z,4.40
2023-01-07T16:10:01.864Z,4.30
2023-01-07T16:13:16.270Z,4.20
2023-01-07T16:16:17.627Z,4.10
2023-01-07T16:19:21.231Z,4.20
2023-01-07T16:22:31.744Z,4.10
2023-01-07T16:25:48.768Z,4.10
2023-01-07T16:28:59.406Z,4.10
2023-01-07T16:32:01.516Z,4.10
2023-01-07T16:35:17.050Z,4.10
2023-01-07T16:38:20.691Z,4.00
2023-01-07T16:41:26.102Z,3.90
2023-01-07T16:44:47.042Z,3.70
2023-01-07T16:48:19.704Z,3.80
2023-01-07T16:51:50.320Z,3.70
2023-01-07T16:54:52.051Z,3.70
2023-01-07T16:57:53.101Z,3.60
2023-01-07T17:00:58.506Z,3.60
2023-01-07T17:04:07.614Z,3.50
2023-01-07T17:07:26.524Z,3.30
2023-01-07T17:10:32.457Z,3.10
2023-01-07T17:13:38.302Z,3.10
2023-01-07T17:16:39.751Z,3.30
2023-01-07T17:19:47.741Z,3.20
2023-01-07T17:22:50.039Z,3.10
2023-01-07T17:26:07.849Z,3.00
2023-01-07T17:29:13.427Z,3.20
2023-01-07T17:32:15.162Z,3.50
2023-01-07T17:35:25.018Z,3.30
2023-01-07T17:38:26.160Z,3.30
2023-01-07T17:41:45.677Z,3.40
2023-01-07T17:44:48.540Z,3.50
2023-01-07T17:47:49.815Z,3.30
2023-01-07T17:50:50.559Z,3.10
2023-01-07T17:53:54.161Z,3.30
2023-01-07T17:56:55.228Z,3.10
2023-01-07T17:59:56.136Z,2.90
2023-01-07T18:02:58.434Z,3.00
2023-01-07T18:05:59.508Z,2.90
2023-01-07T18:09:00.517Z,2.90
2023-01-07T18:12:20.036Z,2.90
2023-01-07T18:15:26.762Z,2.90
2023-01-07T18:18:31.601Z,2.80
2023-01-07T18:21:32.388Z,2.80
2023-01-07T18:24:34.881Z,2.90
2023-01-07T18:27:35.979Z,2.90
2023-01-07T18:30:39.146Z,3.00
2023-01-07T18:33:40.222Z,3.00
2023-01-07T18:36:41.979Z,3.20
2023-01-07T18:39:43.090Z,3.30
2023-01-07T18:42:44.339Z,3.20
2023-01-07T18:45:46.811Z,3.00
2023-01-07T18:48:47.996Z,3.00
2023-01-07T18:51:48.914Z,2.90
2023-01-07T18:54:49.755Z,2.80
2023-01-07T18:57:50.911Z,3.10
2023-01-07T19:00:51.931Z,3.40
2023-01-07T19:03:53.096Z,3.60
2023-01-07T19:06:54.448Z,3.60
2023-01-07T19:09:55.510Z,3.50
2023-01-07T19:12:56.219Z,3.50
2023-01-07T19:15:57.137Z,3.60
2023-01-07T19:18:58.087Z,3.80
2023-01-07T19:21:59.232Z,4.10
2023-01-07T19:25:01.013Z,4.10
2023-01-07T19:28:01.920Z,4.10
2023-01-07T19:31:11.006Z,4.20
2023-01-07T19:34:13.590Z,4.20
2023-01-07T19:37:14.617Z,4.10
2023-01-07T19:40:15.661Z,4.20
2023-01-07T19:43:16.925Z,4.00
2023-01-07T19:46:18.668Z,4.00
2023-01-07T19:49:19.603Z,3.80
2023-01-07T19:52:20.923Z,3.80
2023-01-07T19:55:22.719Z,3.50
2023-01-07T19:58:23.730Z,3.30
2023-01-07T20:01:26.901Z,3.30
2023-01-07T20:04:28.448Z,3.60
2023-01-07T20:07:34.098Z,3.80
2023-01-07T20:10:35.305Z,3.50
2023-01-07T20:13:38.822Z,3.30
2023-01-07T20:16:41.881Z,3.60
2023-01-07T20:19:42.882Z,3.70
2023-01-07T20:22:48.720Z,3.20
2023-01-07T20:25:50.009Z,3.20
2023-01-07T20:28:51.582Z,3.10
2023-01-07T20:31:52.672Z,3.00
2023-01-07T20:34:53.904Z,3.10
2023-01-07T20:37:54.862Z,3.20
2023-01-07T20:40:56.193Z,3.00
2023-01-07T20:44:00.963Z,3.00
2023-01-07T20:47:02.428Z,3.00
2023-01-07T20:50:03.913Z,3.10
2023-01-07T20:53:04.964Z,3.10
2023-01-07T20:56:07.194Z,3.10
2023-01-07T20:59:09.220Z,3.10
2023-01-07T21:02:18.041Z,3.00
2023-01-07T21:05:21.169Z,2.80
2023-01-07T21:08:22.218Z,2.70
2023-01-07T21:11:24.270Z,2.60
2023-01-07T21:14:25.345Z,2.60
2023-01-07T21:17:25.915Z,2.40
2023-01-07T21:20:26.750Z,2.60
2023-01-07T21:23:28.243Z,2.70
2023-01-07T21:26:29.520Z,2.90
2023-01-07T21:29:30.198Z,3.00
2023-01-07T21:32:31.585Z,3.00
2023-01-07T21:35:32.584Z,3.00
2023-01-07T21:38:33.577Z,2.90
2023-01-07T21:41:34.573Z,2.90
2023-01-07T21:44:36.170Z,2.90
2023-01-07T21:47:37.109Z,2.80
2023-01-07T21:50:38.558Z,2.90
2023-01-07T21:53:39.346Z,2.70
2023-01-07T21:56:40.563Z,2.30
2023-01-07T21:59:41.346Z,2.00
2023-01-07T22:02:42.147Z,1.90
2023-01-07T22:05:42.802Z,2.10
2023-01-07T22:08:43.649Z,2.20
2023-01-07T22:11:45.264Z,2.10
2023-01-07T22:14:46.804Z,1.90
2023-01-07T22:17:47.590Z,2.00
2023-01-07T22:20:55.968Z,2.00
2023-01-07T22:23:57.604Z,2.00
2023-01-07T22:26:58.658Z,1.90
2023-01-07T22:30:00.689Z,2.00
2023-01-07T22:33:01.686Z,2.50
2023-01-07T22:36:03.052Z,2.80
2023-01-07T22:39:20.058Z,2.80
2023-01-07T22:42:34.346Z,2.50
2023-01-07T22:46:06.611Z,2.30
2023-01-07T22:49:07.710Z,2.10
2023-01-07T22:52:10.740Z,2.00
2023-01-07T22:55:12.992Z,2.10
2023-01-07T22:58:14.684Z,2.40
2023-01-07T23:01:18.205Z,2.30
2023-01-07T23:04:19.787Z,2.20
2023-01-07T23:07:21.053Z,1.80
2023-01-07T23:10:21.746Z,1.70
2023-01-07T23:13:22.640Z,1.60
2023-01-07T23:16:23.318Z,1.60
2023-01-07T23:19:24.210Z,1.50
2023-01-07T23:22:24.936Z,1.50
2023-01-07T23:25:25.737Z,1.40
2023-01-07T23:28:26.501Z,1.30
2023-01-07T23:31:27.386Z,1.30
2023-01-07T23:34:28.201Z,1.30
2023-01-07T23:37:28.973Z,1.30
2023-01-07T23:40:30.293Z,1.40
2023-01-07T23:43:32.632Z,1.50
2023-01-07T23:46:33.501Z,1.50
2023-01-07T23:49:34.424Z,1.40
2023-01-07T23:52:35.140Z,1.30
2023-01-07T23:55:36.272Z,1.40
2023-01-07T23:58:38.535Z,1.30
